createdAt,value
2023-07-17T00:28:34.135Z,94365.00
2023-07-17T00:48:20.084Z,94338.00
2023-07-17T00:52:32.312Z,94298.00
2023-07-17T00:56:41.135Z,94287.00
2023-07-17T01:01:21.219Z,94327.00
2023-07-17T01:09:50.004Z,94410.00
2023-07-17T01:13:56.907Z,94402.00
2023-07-17T01:18:07.233Z,94416.00
2023-07-17T01:27:05.312Z,94418.00
2023-07-17T01:31:26.020Z,94404.00
2023-07-17T01:35:36.782Z,94397.00
2023-07-17T01:44:12.445Z,94384.00
2023-07-17T01:53:13.369Z,94374.00
2023-07-17T02:42:53.000Z,94359.00
2023-07-17T02:47:03.477Z,94363.00
2023-07-17T02:51:10.930Z,94349.00
2023-07-17T02:55:15.257Z,94371.00
2023-07-17T02:59:18.965Z,94378.00
2023-07-17T03:03:24.576Z,94366.00
2023-07-17T03:07:31.755Z,94379.00
2023-07-17T03:11:36.107Z,94383.00
2023-07-17T03:15:40.617Z,94376.00
2023-07-17T03:19:45.702Z,94372.00
2023-07-17T03:23:52.430Z,94357.00
2023-07-17T03:27:59.586Z,94353.00
2023-07-17T03:32:09.861Z,94373.00
2023-07-17T03:36:14.678Z,94399.00
2023-07-17T03:40:22.062Z,94392.00
2023-07-17T03:44:28.074Z,94391.00
2023-07-17T03:48:34.170Z,94388.00
2023-07-17T03:52:44.505Z,94380.00
2023-07-17T03:56:57.162Z,94388.00
2023-07-17T04:01:04.984Z,94392.00
2023-07-17T04:05:18.496Z,94388.00
2023-07-17T04:09:24.832Z,94381.00
2023-07-17T04:13:31.354Z,94387.00
2023-07-17T04:17:36.425Z,94404.00
2023-07-17T04:21:41.267Z,94409.00
2023-07-17T04:26:03.466Z,94403.00
2023-07-17T04:30:34.045Z,94417.00
2023-07-17T04:34:53.098Z,94409.00
2023-07-17T04:43:33.994Z,94421.00
2023-07-17T04:47:42.649Z,94415.00
2023-07-17T04:51:48.734Z,94408.00
2023-07-17T04:55:58.594Z,94398.00
2023-07-17T05:00:04.447Z,94400.00
2023-07-17T05:04:12.740Z,94416.00
2023-07-17T05:08:24.425Z,94412.00
2023-07-17T05:12:29.923Z,94380.00
2023-07-17T05:16:38.359Z,94396.00
2023-07-17T05:21:03.439Z,94402.00
2023-07-17T05:25:11.842Z,94404.00
2023-07-17T05:29:24.083Z,94419.00
2023-07-17T05:33:29.354Z,94408.00
2023-07-17T05:37:36.445Z,94394.00
2023-07-17T05:41:44.306Z,94398.00
2023-07-17T05:45:51.139Z,94393.00
2023-07-17T05:50:08.674Z,94413.00
2023-07-17T05:54:40.847Z,94413.00
2023-07-17T05:58:55.252Z,94424.00
2023-07-17T06:03:00.435Z,94433.00
2023-07-17T06:07:06.225Z,94435.00
2023-07-17T06:11:13.644Z,94439.00
2023-07-17T06:15:19.614Z,94452.00
2023-07-17T06:20:16.455Z,94480.00
2023-07-17T06:24:26.210Z,94489.00
2023-07-17T06:28:32.686Z,94488.00
2023-07-17T06:32:36.662Z,94488.00
2023-07-17T06:36:40.852Z,94484.00
2023-07-17T06:40:44.955Z,94472.00
2023-07-17T06:44:50.185Z,94496.00
2023-07-17T06:48:54.492Z,94474.00
2023-07-17T06:52:58.283Z,94478.00
2023-07-17T06:57:01.830Z,94494.00
2023-07-17T07:01:10.676Z,94496.00
2023-07-17T07:05:14.664Z,94499.00
2023-07-17T07:09:19.088Z,94495.00
2023-07-17T07:13:23.602Z,94500.00
2023-07-17T07:17:33.261Z,94501.00
2023-07-17T07:21:38.096Z,94503.00
2023-07-17T07:25:45.331Z,94498.00
2023-07-17T07:29:49.304Z,94503.00
2023-07-17T07:33:55.837Z,94509.00
2023-07-17T07:37:59.908Z,94511.00
2023-07-17T07:42:06.745Z,94524.00
2023-07-17T07:46:11.446Z,94524.00
2023-07-17T07:50:16.933Z,94517.00
2023-07-17T07:54:22.470Z,94512.00
2023-07-17T07:58:26.658Z,94504.00
2023-07-17T08:02:31.715Z,94506.00
2023-07-17T08:06:37.334Z,94514.00
2023-07-17T08:10:43.089Z,94515.00
2023-07-17T08:14:47.099Z,94529.00
2023-07-17T08:18:51.544Z,94549.00
2023-07-17T08:22:57.538Z,94562.00
2023-07-17T08:27:03.643Z,94593.00
2023-07-17T08:31:07.655Z,94609.00
2023-07-17T08:35:14.793Z,94602.00
2023-07-17T08:39:20.459Z,94610.00
2023-07-17T08:43:25.893Z,94608.00
2023-07-17T08:47:29.580Z,94609.00
2023-07-17T08:51:33.301Z,94625.00
2023-07-17T08:55:39.645Z,94625.00
2023-07-17T08:59:44.157Z,94632.00
2023-07-17T09:03:48.463Z,94641.00
2023-07-17T09:07:52.231Z,94648.00
2023-07-17T09:12:10.592Z,94658.00
2023-07-17T09:16:17.097Z,94665.00
2023-07-17T09:20:21.934Z,94655.00
2023-07-17T09:24:27.228Z,94665.00
2023-07-17T09:28:32.942Z,94642.00
2023-07-17T09:32:37.324Z,94626.00
2023-07-17T09:36:40.966Z,94605.00
2023-07-17T09:40:44.745Z,94601.00
2023-07-17T09:44:50.533Z,94579.00
2023-07-17T09:48:56.110Z,94556.00
2023-07-17T09:53:01.068Z,94554.00
2023-07-17T09:57:09.233Z,94559.00
2023-07-17T10:06:41.244Z,94551.00
2023-07-17T10:16:03.248Z,94563.00
2023-07-17T10:20:12.089Z,94584.00
2023-07-17T10:24:17.617Z,94574.00
2023-07-17T10:28:33.654Z,94582.00
2023-07-17T10:32:42.510Z,94575.00
2023-07-17T10:36:47.339Z,94591.00
2023-07-17T10:41:03.819Z,94597.00
2023-07-17T10:45:11.447Z,94604.00
2023-07-17T10:49:20.999Z,94594.00
2023-07-17T10:53:25.832Z,94589.00
2023-07-17T10:57:31.377Z,94580.00
2023-07-17T11:01:34.985Z,94577.00
2023-07-17T11:05:40.282Z,94585.00
2023-07-17T11:09:45.672Z,94590.00
2023-07-17T11:13:53.205Z,94585.00
2023-07-17T11:17:56.908Z,94586.00
2023-07-17T11:22:00.516Z,94572.00
2023-07-17T11:26:05.976Z,94560.00
2023-07-17T11:30:23.030Z,94567.00
2023-07-17T11:34:27.013Z,94550.00
2023-07-17T11:38:31.841Z,94541.00
2023-07-17T11:42:56.915Z,94548.00
2023-07-17T11:47:10.117Z,94541.00
2023-07-17T11:51:13.675Z,94531.00
2023-07-17T11:55:24.554Z,94528.00
2023-07-17T11:59:28.451Z,94538.00
2023-07-17T12:03:33.798Z,94524.00
2023-07-17T12:07:38.733Z,94519.00
2023-07-17T12:11:43.826Z,94517.00
2023-07-17T12:15:47.827Z,94520.00
2023-07-17T12:19:53.006Z,94515.00
2023-07-17T12:23:57.980Z,94509.00
2023-07-17T12:28:11.797Z,94517.00
2023-07-17T12:32:16.834Z,94518.00
2023-07-17T12:36:22.173Z,94511.00
2023-07-17T12:40:26.253Z,94505.00
2023-07-17T12:44:30.568Z,94491.00
2023-07-17T12:48:34.310Z,94493.00
2023-07-17T12:52:39.746Z,94483.00
2023-07-17T12:56:44.682Z,94488.00
2023-07-17T13:00:48.443Z,94481.00
2023-07-17T13:04:51.869Z,94486.00
2023-07-17T13:08:57.058Z,94483.00
2023-07-17T13:13:00.648Z,94475.00
2023-07-17T13:17:04.274Z,94484.00
2023-07-17T13:21:09.075Z,94480.00
2023-07-17T13:25:35.570Z,94477.00
2023-07-17T13:29:44.742Z,94482.00
2023-07-17T13:33:48.759Z,94486.00
2023-07-17T13:37:52.695Z,94477.00
2023-07-17T13:42:00.410Z,94489.00
2023-07-17T13:46:04.406Z,94478.00
2023-07-17T13:50:10.975Z,94478.00
2023-07-17T13:54:19.979Z,94483.00
2023-07-17T13:58:26.095Z,94471.00
2023-07-17T14:02:29.989Z,94478.00
2023-07-17T14:06:33.656Z,94472.00
2023-07-17T14:10:37.180Z,94469.00
2023-07-17T14:14:42.860Z,94482.00
2023-07-17T14:18:46.632Z,94465.00
2023-07-17T14:22:51.199Z,94471.00
2023-07-17T14:26:55.178Z,94470.00
2023-07-17T14:31:01.493Z,94471.00
2023-07-17T14:35:10.995Z,94468.00
2023-07-17T14:39:15.388Z,94463.00
2023-07-17T14:43:19.029Z,94472.00
2023-07-17T14:47:24.341Z,94459.00
2023-07-17T14:51:28.298Z,94460.00
2023-07-17T14:55:34.523Z,94453.00
2023-07-17T14:59:39.793Z,94449.00
2023-07-17T15:03:58.726Z,94433.00
2023-07-17T15:08:02.283Z,94436.00
2023-07-17T15:12:06.883Z,94437.00
2023-07-17T15:16:10.668Z,94436.00
2023-07-17T15:20:16.284Z,94428.00
2023-07-17T15:24:19.874Z,94423.00
2023-07-17T15:28:23.700Z,94423.00
2023-07-17T15:32:28.056Z,94419.00
2023-07-17T15:36:33.351Z,94422.00
2023-07-17T15:40:37.027Z,94413.00
2023-07-17T15:44:40.592Z,94416.00
2023-07-17T15:48:47.775Z,94411.00
2023-07-17T15:52:52.923Z,94420.00
2023-07-17T15:56:56.762Z,94408.00
2023-07-17T16:01:01.279Z,94403.00
2023-07-17T16:05:05.800Z,94392.00
2023-07-17T16:09:12.277Z,94398.00
2023-07-17T16:13:16.547Z,94397.00
2023-07-17T16:17:20.410Z,94383.00
2023-07-17T16:21:24.725Z,94391.00
2023-07-17T16:25:30.511Z,94395.00
2023-07-17T16:29:35.605Z,94384.00
2023-07-17T16:33:39.650Z,94384.00
2023-07-17T16:37:43.174Z,94385.00
2023-07-17T16:41:49.171Z,94381.00
2023-07-17T16:46:01.343Z,94379.00
2023-07-17T16:50:05.134Z,94391.00
2023-07-17T17:10:39.178Z,94385.00
2023-07-17T17:14:44.484Z,94375.00
2023-07-17T17:18:51.784Z,94378.00
2023-07-17T17:22:56.769Z,94387.00
2023-07-17T17:27:06.310Z,94386.00
2023-07-17T17:31:11.883Z,94397.00
2023-07-17T17:35:47.698Z,94395.00
2023-07-17T17:39:51.715Z,94395.00
2023-07-17T17:44:26.386Z,94393.00
2023-07-17T17:48:33.339Z,94393.00
2023-07-17T17:52:39.802Z,94387.00
2023-07-17T17:57:44.685Z,94401.00
2023-07-17T18:06:43.989Z,94411.00
2023-07-17T18:11:14.207Z,94402.00
2023-07-17T18:16:34.822Z,94436.00
2023-07-17T18:21:11.387Z,94434.00
2023-07-17T18:25:52.949Z,94449.00
2023-07-17T18:30:15.787Z,94465.00
2023-07-17T18:34:34.773Z,94461.00
2023-07-17T18:38:55.969Z,94447.00
2023-07-17T18:43:19.428Z,94459.00
2023-07-17T18:47:33.486Z,94472.00
2023-07-17T18:51:47.554Z,94469.00
2023-07-17T18:56:02.024Z,94457.00
2023-07-17T19:18:00.550Z,94510.00
2023-07-17T19:22:26.643Z,94524.00
2023-07-17T19:26:46.571Z,94507.00
2023-07-17T19:31:30.935Z,94519.00
2023-07-17T19:36:18.623Z,94526.00
2023-07-17T19:40:26.091Z,94536.00
2023-07-17T19:44:43.483Z,94532.00
2023-07-17T19:49:13.018Z,94552.00
2023-07-17T19:53:47.365Z,94536.00
2023-07-17T19:58:09.816Z,94548.00
2023-07-17T20:02:33.265Z,94547.00
2023-07-17T20:07:10.999Z,94540.00
2023-07-17T20:26:44.666Z,94534.00
2023-07-17T20:30:52.673Z,94560.00
2023-07-17T20:35:32.311Z,94542.00
2023-07-17T20:40:17.923Z,94558.00
2023-07-17T21:35:11.882Z,94575.00
2023-07-17T21:39:16.044Z,94566.00
2023-07-17T21:43:21.836Z,94575.00
2023-07-17T21:47:55.722Z,94587.00
2023-07-17T21:52:14.630Z,94579.00
2023-07-17T21:56:25.927Z,94581.00
2023-07-17T22:01:17.363Z,94577.00
2023-07-17T22:24:14.755Z,94593.00
2023-07-17T22:33:23.588Z,94595.00
2023-07-17T22:42:16.301Z,94570.00
2023-07-17T22:46:39.162Z,94580.00
2023-07-17T22:51:39.030Z,94592.00
2023-07-17T22:55:46.897Z,94569.00
2023-07-17T23:00:21.727Z,94596.00
2023-07-17T23:04:30.610Z,94587.00
2023-07-17T23:09:21.912Z,94594.00
2023-07-17T23:13:28.974Z,94607.00
2023-07-17T23:18:42.376Z,94601.00
2023-07-17T23:23:36.925Z,94603.00
2023-07-17T23:28:13.634Z,94623.00
2023-07-17T23:37:16.153Z,94602.00
2023-07-17T23:41:20.841Z,94612.00
2023-07-17T23:45:57.643Z,94624.00
2023-07-17T23:50:02.108Z,94629.00
2023-07-17T23:54:08.330Z,94646.00
2023-07-17T23:58:12.556Z,94621.00
